Time;durP1;ratioP1;P1;durP2;ratioP2;P2;SDS_P1;SDS_P2;PMS_P1;PMS_P2;Temp;Humidity;BMP_temperature;BMP_pressure;BME280_temperature;BME280_humidity;BME280_pressure;Samples;Min_cycle;Max_cycle;Signal;HPM_P1;HPM_P2
2021/11/04 00:00:33;;;;;;;27.63;16.73;;;8.00;99.90;;;;;;4978792;28;20257;-51
2021/11/04 00:03:01;;;;;;;22.53;15.63;;;8.20;99.90;;;;;;4973844;28;20207;-50
2021/11/04 00:05:29;;;;;;;30.17;16.30;;;8.10;99.90;;;;;;4977334;28;20198;-51
2021/11/04 00:07:58;;;;;;;31.73;16.63;;;7.90;99.90;;;;;;4977191;28;20260;-51
2021/11/04 00:10:25;;;;;;;30.93;17.50;;;7.60;99.90;;;;;;4977582;28;20207;-52
2021/11/04 00:12:52;;;;;;;32.93;16.17;;;7.70;99.90;;;;;;4977347;28;20208;-51
2021/11/04 00:15:20;;;;;;;27.70;17.00;;;7.60;99.90;;;;;;4980025;28;20206;-51
2021/11/04 00:17:47;;;;;;;29.37;17.27;;;7.50;99.90;;;;;;4977486;28;20236;-50
2021/11/04 00:20:17;;;;;;;33.57;15.90;;;7.50;99.90;;;;;;4974380;28;20235;-53
2021/11/04 00:22:46;;;;;;;36.33;16.67;;;7.30;99.90;;;;;;4959213;28;20295;-51
2021/11/04 00:25:14;;;;;;;28.83;17.27;;;7.20;99.90;;;;;;4975555;28;20218;-49
2021/11/04 00:27:41;;;;;;;28.73;16.40;;;7.30;99.90;;;;;;4976735;28;20582;-52
2021/11/04 00:30:09;;;;;;;40.13;17.53;;;7.60;99.90;;;;;;4979214;28;20352;-51
2021/11/04 00:32:36;;;;;;;35.37;17.00;;;7.40;99.90;;;;;;4977787;28;20270;-51
2021/11/04 00:35:04;;;;;;;29.57;16.47;;;7.30;99.90;;;;;;4977621;28;20577;-51
2021/11/04 00:37:31;;;;;;;28.53;15.80;;;7.50;99.90;;;;;;4976475;28;20214;-50
2021/11/04 00:39:58;;;;;;;29.50;18.43;;;7.60;99.90;;;;;;4977759;28;20208;-50
2021/11/04 00:42:25;;;;;;;25.63;16.60;;;7.80;99.90;;;;;;4978652;28;20243;-52
2021/11/04 00:44:52;;;;;;;25.07;16.53;;;7.90;99.90;;;;;;4975237;28;20291;-52
2021/11/04 00:47:18;;;;;;;26.17;16.57;;;8.00;99.90;;;;;;4975603;28;20320;-50
2021/11/04 00:49:45;;;;;;;27.33;17.50;;;8.00;99.90;;;;;;4976020;28;20326;-50
2021/11/04 00:52:12;;;;;;;30.30;17.70;;;8.10;99.90;;;;;;4976355;28;20198;-51
2021/11/04 00:54:40;;;;;;;25.90;17.63;;;8.00;99.90;;;;;;4978738;28;20207;-52
2021/11/04 00:57:07;;;;;;;33.93;17.67;;;7.90;99.90;;;;;;4975288;28;20202;-53
2021/11/04 00:59:33;;;;;;;34.70;17.77;;;8.00;99.90;;;;;;4975232;28;20290;-51
2021/11/04 01:02:00;;;;;;;28.20;19.13;;;8.00;99.90;;;;;;4977965;28;20235;-50
2021/11/04 01:04:27;;;;;;;31.10;20.20;;;7.80;99.90;;;;;;4974434;28;20992;-51
2021/11/04 01:06:54;;;;;;;27.30;18.47;;;8.00;99.90;;;;;;4975302;28;20205;-51
2021/11/04 01:09:21;;;;;;;38.47;19.53;;;8.00;99.90;;;;;;4977429;28;20301;-49
2021/11/04 01:11:48;;;;;;;31.63;16.30;;;8.00;99.90;;;;;;4972411;28;20249;-50
2021/11/04 01:14:15;;;;;;;32.73;13.73;;;7.50;99.90;;;;;;4977261;28;20247;-50
2021/11/04 01:16:42;;;;;;;38.17;13.90;;;7.20;99.90;;;;;;4975490;28;20321;-51
2021/11/04 01:19:12;;;;;;;24.43;13.60;;;7.00;99.90;;;;;;4958390;28;20254;-50
2021/11/04 01:21:42;;;;;;;26.80;13.60;;;6.80;99.90;;;;;;4976513;28;20620;-52
2021/11/04 01:24:09;;;;;;;26.33;13.50;;;6.60;99.90;;;;;;4976240;28;20222;-51
2021/11/04 01:26:36;;;;;;;24.03;13.90;;;6.70;99.90;;;;;;4974074;28;20202;-51
2021/11/04 01:29:03;;;;;;;21.60;14.27;;;6.90;99.90;;;;;;4968274;28;20737;-52
2021/11/04 01:31:30;;;;;;;24.83;12.77;;;7.20;99.90;;;;;;4969046;28;20235;-50
2021/11/04 01:33:57;;;;;;;20.53;14.07;;;7.20;99.90;;;;;;4975970;28;20337;-51
2021/11/04 01:36:24;;;;;;;22.13;14.03;;;7.40;99.90;;;;;;4975322;28;20229;-51
2021/11/04 01:38:50;;;;;;;35.17;14.00;;;7.30;99.90;;;;;;4982083;28;20266;-50
2021/11/04 01:41:17;;;;;;;23.27;13.53;;;7.00;99.90;;;;;;4977209;28;20195;-50
2021/11/04 01:43:45;;;;;;;23.77;14.83;;;7.20;99.90;;;;;;4977338;28;20222;-50
2021/11/04 01:46:12;;;;;;;24.27;14.23;;;7.30;99.90;;;;;;4975125;28;20255;-51
2021/11/04 01:48:40;;;;;;;24.20;15.83;;;7.40;99.90;;;;;;4975303;28;20639;-51
2021/11/04 01:51:06;;;;;;;21.70;14.53;;;7.50;99.90;;;;;;4974077;28;20202;-52
2021/11/04 01:53:34;;;;;;;20.87;14.53;;;7.60;99.90;;;;;;4978219;28;20257;-50
2021/11/04 01:56:00;;;;;;;20.43;14.67;;;7.60;99.90;;;;;;4957814;28;20200;-50
2021/11/04 01:58:27;;;;;;;19.97;14.23;;;7.60;99.90;;;;;;4976988;28;20622;-52
2021/11/04 02:00:55;;;;;;;20.50;14.37;;;7.70;99.90;;;;;;4968859;28;20198;-50
2021/11/04 02:03:29;;;;;;;20.10;14.10;;;7.70;99.90;;;;;;4968807;28;20205;-49
2021/11/04 02:06:17;;;;;;;24.40;16.70;;;7.50;99.90;;;;;;4975636;28;20585;-53
2021/11/04 02:08:46;;;;;;;26.07;17.47;;;7.50;99.90;;;;;;4975025;28;20855;-50
2021/11/04 02:11:16;;;;;;;29.10;18.73;;;7.70;99.90;;;;;;4973804;28;20296;-50
2021/11/04 02:13:52;;;;;;;30.10;18.50;;;7.70;99.90;;;;;;4975937;28;20293;-51
2021/11/04 02:16:22;;;;;;;28.40;18.60;;;7.80;99.90;;;;;;4975990;28;20243;-52
2021/11/04 02:18:52;;;;;;;35.27;19.67;;;7.70;99.90;;;;;;4956677;28;20289;-51
2021/11/04 02:21:39;;;;;;;29.97;19.43;;;7.50;99.90;;;;;;4960194;28;20231;-50
2021/11/04 02:24:45;;;;;;;33.20;21.33;;;7.40;99.90;;;;;;4973807;28;20298;-51
2021/11/04 02:27:13;;;;;;;32.43;20.67;;;7.40;99.90;;;;;;4971972;28;20292;-52
2021/11/04 02:29:43;;;;;;;33.53;20.87;;;7.30;99.90;;;;;;4977714;28;20264;-52
2021/11/04 02:32:11;;;;;;;34.07;18.53;;;7.10;99.90;;;;;;4974582;28;20218;-51
2021/11/04 02:34:40;;;;;;;29.57;19.40;;;7.30;99.90;;;;;;4959438;28;20711;-50
2021/11/04 02:37:08;;;;;;;31.07;19.97;;;7.40;99.90;;;;;;4974946;28;20873;-51
2021/11/04 02:39:36;;;;;;;31.70;19.87;;;7.20;99.90;;;;;;4982104;28;20350;-51
2021/11/04 02:42:04;;;;;;;33.53;20.53;;;7.50;99.90;;;;;;4973866;28;20238;-51
2021/11/04 02:44:32;;;;;;;32.20;19.33;;;7.60;99.90;;;;;;4974574;28;20305;-50
2021/11/04 02:46:59;;;;;;;29.90;19.17;;;7.60;99.90;;;;;;4971230;28;20254;-50
2021/11/04 02:49:27;;;;;;;21.93;15.20;;;7.40;99.90;;;;;;4960940;28;20273;-51
2021/11/04 02:51:54;;;;;;;24.43;15.93;;;7.20;99.90;;;;;;4980653;28;20289;-52
2021/11/04 02:54:21;;;;;;;22.07;14.17;;;7.30;99.90;;;;;;4982717;28;20254;-50
2021/11/04 02:56:51;;;;;;;24.03;14.60;;;7.40;99.90;;;;;;4978633;28;20206;-50
2021/11/04 02:59:22;;;;;;;18.43;13.00;;;7.40;99.90;;;;;;4981567;28;20261;-51
2021/11/04 03:01:52;;;;;;;19.23;13.50;;;7.00;99.90;;;;;;4979727;28;20621;-51
2021/11/04 03:04:20;;;;;;;21.10;13.70;;;7.20;99.90;;;;;;4982314;28;20243;-50
2021/11/04 03:06:48;;;;;;;20.53;13.33;;;7.10;99.90;;;;;;4960540;28;20211;-51
2021/11/04 03:09:17;;;;;;;19.20;13.27;;;6.80;99.90;;;;;;4979952;28;20211;-51
2021/11/04 03:11:44;;;;;;;19.60;13.23;;;6.90;99.90;;;;;;4978757;28;20241;-50
2021/11/04 03:14:11;;;;;;;18.80;12.60;;;7.10;99.90;;;;;;4978382;28;20198;-52
2021/11/04 03:16:41;;;;;;;19.23;12.73;;;6.90;99.90;;;;;;4975233;28;20274;-50
2021/11/04 03:19:10;;;;;;;24.40;12.77;;;7.00;99.90;;;;;;4977193;28;20234;-51
2021/11/04 03:21:39;;;;;;;20.43;13.57;;;6.80;99.90;;;;;;4975978;28;20247;-51
2021/11/04 03:24:07;;;;;;;16.83;12.80;;;6.70;99.90;;;;;;4979628;28;20743;-50
2021/11/04 03:26:40;;;;;;;18.60;13.77;;;6.70;99.90;;;;;;4972500;28;20247;-50
2021/11/04 03:29:09;;;;;;;24.47;13.00;;;6.90;99.90;;;;;;4980710;28;20704;-51
2021/11/04 03:31:40;;;;;;;23.73;13.77;;;6.70;99.90;;;;;;4973631;28;20235;-52
2021/11/04 03:34:07;;;;;;;18.67;13.13;;;6.50;99.90;;;;;;4947718;28;20265;-50
2021/11/04 03:36:35;;;;;;;23.63;13.43;;;6.60;99.90;;;;;;4974999;28;20285;-50
2021/11/04 03:39:04;;;;;;;17.70;13.43;;;6.60;99.90;;;;;;4975970;28;20206;-52
2021/11/04 03:41:33;;;;;;;19.80;12.70;;;6.70;99.90;;;;;;4972738;28;20563;-51
2021/11/04 03:44:01;;;;;;;20.93;12.77;;;6.80;99.90;;;;;;4979183;28;20221;-50
2021/11/04 03:46:29;;;;;;;16.27;13.27;;;6.60;99.90;;;;;;4975345;28;20254;-50
2021/11/04 03:48:56;;;;;;;18.53;12.47;;;6.70;99.90;;;;;;4975629;28;20725;-51
2021/11/04 03:51:24;;;;;;;16.67;12.70;;;6.50;99.90;;;;;;4969204;28;20199;-51
2021/11/04 03:53:51;;;;;;;15.90;12.10;;;6.70;99.90;;;;;;4977958;28;20209;-50
2021/11/04 03:56:20;;;;;;;15.07;12.00;;;6.80;99.90;;;;;;4973497;28;20219;-50
2021/11/04 03:58:48;;;;;;;15.50;12.33;;;6.60;99.90;;;;;;4977395;28;20239;-50
2021/11/04 04:01:15;;;;;;;18.83;11.77;;;6.60;99.90;;;;;;4977014;28;20240;-50
2021/11/04 04:03:43;;;;;;;16.37;12.33;;;6.50;99.90;;;;;;4975300;28;20234;-52
2021/11/04 04:06:11;;;;;;;15.83;11.73;;;6.40;99.90;;;;;;4977909;28;20274;-51
2021/11/04 04:08:46;;;;;;;17.87;11.43;;;6.40;99.90;;;;;;4977145;28;20261;-50
2021/11/04 04:11:14;;;;;;;17.20;13.23;;;6.50;99.90;;;;;;4978456;28;20630;-51
2021/11/04 04:13:41;;;;;;;16.70;12.07;;;6.50;99.90;;;;;;4974732;28;20565;-50
2021/11/04 04:16:08;;;;;;;16.73;11.97;;;6.40;99.90;;;;;;4979485;28;20249;-50
2021/11/04 04:18:35;;;;;;;17.60;12.73;;;6.60;99.90;;;;;;4976828;28;20207;-50
2021/11/04 04:21:02;;;;;;;17.53;11.67;;;6.80;99.90;;;;;;4976939;28;20226;-51
2021/11/04 04:23:29;;;;;;;16.57;12.03;;;6.80;99.90;;;;;;4961557;28;20210;-51
2021/11/04 04:25:56;;;;;;;15.80;11.93;;;6.90;99.90;;;;;;4976309;28;20222;-51
2021/11/04 04:28:23;;;;;;;16.33;11.63;;;7.00;99.90;;;;;;4956810;28;20226;-50
2021/11/04 04:30:49;;;;;;;18.23;10.97;;;7.20;99.90;;;;;;4973295;28;20250;-50
2021/11/04 04:33:16;;;;;;;17.47;11.97;;;6.90;99.90;;;;;;4974574;28;20223;-52
2021/11/04 04:35:43;;;;;;;15.40;11.47;;;6.70;99.90;;;;;;4973923;28;20213;-52
2021/11/04 04:38:10;;;;;;;19.60;12.57;;;6.60;99.90;;;;;;4972837;28;20235;-51
2021/11/04 04:40:37;;;;;;;18.20;12.23;;;6.50;99.90;;;;;;4978186;28;20209;-50
2021/11/04 04:43:04;;;;;;;15.90;11.57;;;6.60;99.90;;;;;;4974120;28;20283;-51
2021/11/04 04:45:30;;;;;;;17.87;12.80;;;6.60;99.90;;;;;;4977881;28;20710;-52
2021/11/04 04:47:57;;;;;;;16.63;12.60;;;6.60;99.90;;;;;;4959388;28;20866;-51
2021/11/04 04:50:24;;;;;;;16.47;12.07;;;6.70;99.90;;;;;;4975133;28;20284;-50
2021/11/04 04:52:51;;;;;;;15.33;12.03;;;6.90;99.90;;;;;;4976833;28;20226;-50
2021/11/04 04:55:18;;;;;;;14.70;11.37;;;6.80;99.90;;;;;;4980978;28;20234;-52
2021/11/04 04:57:45;;;;;;;21.67;12.13;;;6.90;99.90;;;;;;4973548;28;20297;-50
2021/11/04 05:00:13;;;;;;;14.20;10.90;;;6.80;99.90;;;;;;4977553;28;20295;-51
2021/11/04 05:02:43;;;;;;;18.30;11.50;;;6.60;99.90;;;;;;4972754;28;20293;-51
2021/11/04 05:05:12;;;;;;;14.80;11.20;;;6.60;99.90;;;;;;4979301;28;20222;-50
2021/11/04 05:07:40;;;;;;;26.67;11.63;;;6.80;99.90;;;;;;4973548;28;20576;-51
2021/11/04 05:10:08;;;;;;;27.23;12.33;;;6.60;99.90;;;;;;4976264;28;20256;-49
2021/11/04 05:12:36;;;;;;;31.20;11.73;;;6.30;99.90;;;;;;4972148;28;20755;-50
2021/11/04 05:15:05;;;;;;;22.77;12.10;;;6.20;99.90;;;;;;4958277;28;20237;-51
2021/11/04 05:17:36;;;;;;;54.47;12.40;;;6.20;99.90;;;;;;4976312;28;20207;-51
2021/11/04 05:20:04;;;;;;;37.27;12.53;;;6.10;99.90;;;;;;4976182;28;20210;-50
2021/11/04 05:22:31;;;;;;;46.70;12.83;;;6.10;99.90;;;;;;4972843;28;20777;-51
2021/11/04 05:24:58;;;;;;;25.27;12.43;;;6.20;99.90;;;;;;4976480;28;20301;-52
2021/11/04 05:27:25;;;;;;;37.77;12.17;;;6.30;99.90;;;;;;4973982;28;20264;-50
2021/11/04 05:29:52;;;;;;;20.17;12.13;;;6.20;99.90;;;;;;4960170;28;20234;-49
2021/11/04 05:32:19;;;;;;;21.93;11.33;;;6.30;99.90;;;;;;4952506;28;20230;-52
2021/11/04 05:34:46;;;;;;;37.37;11.63;;;6.20;99.90;;;;;;4976550;28;20282;-49
2021/11/04 05:37:13;;;;;;;20.80;11.57;;;6.10;99.90;;;;;;4976938;28;20214;-50
2021/11/04 05:39:40;;;;;;;48.47;12.03;;;6.20;99.90;;;;;;4978845;28;20238;-51
2021/11/04 05:42:08;;;;;;;32.87;10.80;;;5.90;99.90;;;;;;4973926;28;20211;-51
2021/11/04 05:44:35;;;;;;;20.30;10.87;;;5.90;99.90;;;;;;4976985;28;20778;-51
2021/11/04 05:47:06;;;;;;;23.47;10.17;;;5.90;99.90;;;;;;4972478;28;21055;-50
2021/11/04 05:49:37;;;;;;;18.07;10.70;;;5.90;99.90;;;;;;4973203;28;20740;-51
2021/11/04 05:52:05;;;;;;;18.40;10.63;;;6.00;99.90;;;;;;4969973;28;20291;-51
2021/11/04 05:54:32;;;;;;;21.63;11.13;;;5.90;99.90;;;;;;4976906;28;20202;-50
2021/11/04 05:57:00;;;;;;;28.53;10.87;;;5.90;99.90;;;;;;4973382;28;20214;-51
2021/11/04 05:59:27;;;;;;;16.17;10.17;;;5.90;99.90;;;;;;4978539;28;20667;-53
2021/11/04 06:01:54;;;;;;;25.57;10.47;;;5.90;99.90;;;;;;4956834;28;20301;-50
2021/11/04 06:04:22;;;;;;;20.53;10.27;;;5.90;99.90;;;;;;4979560;28;20519;-52
2021/11/04 06:06:50;;;;;;;23.33;10.03;;;5.90;99.90;;;;;;4978086;28;20569;-51
2021/11/04 06:09:17;;;;;;;23.03;10.50;;;5.70;99.90;;;;;;4980690;28;20219;-51
2021/11/04 06:11:44;;;;;;;18.83;10.30;;;5.60;99.90;;;;;;4980939;28;20203;-51
2021/11/04 06:14:11;;;;;;;25.27;9.97;;;5.60;99.90;;;;;;4976199;28;20237;-52
2021/11/04 06:16:37;;;;;;;27.33;10.57;;;5.50;99.90;;;;;;4977854;28;20329;-50
2021/11/04 06:19:04;;;;;;;18.13;10.63;;;5.30;99.90;;;;;;4980923;28;20696;-50
2021/11/04 06:21:31;;;;;;;23.80;10.47;;;5.30;99.90;;;;;;4979162;28;20223;-51
2021/11/04 06:23:58;;;;;;;20.30;10.53;;;5.40;99.90;;;;;;4975347;28;20361;-50
2021/11/04 06:26:24;;;;;;;25.53;11.03;;;5.30;99.90;;;;;;4981668;28;20559;-51
2021/11/04 06:28:53;;;;;;;20.10;10.53;;;5.40;99.90;;;;;;4979663;28;20198;-51
2021/11/04 06:31:19;;;;;;;21.70;10.30;;;5.50;99.90;;;;;;4979889;28;20570;-50
2021/11/04 06:33:46;;;;;;;20.27;11.23;;;5.30;99.90;;;;;;4978290;28;20211;-50
2021/11/04 06:36:13;;;;;;;14.73;10.03;;;5.40;99.90;;;;;;4979018;28;20309;-52
2021/11/04 06:38:40;;;;;;;14.70;9.97;;;5.50;99.90;;;;;;4979445;28;20225;-50
2021/11/04 06:41:07;;;;;;;15.20;11.23;;;5.30;99.90;;;;;;4978583;28;20245;-52
2021/11/04 06:43:34;;;;;;;21.63;10.57;;;5.50;99.90;;;;;;4977849;28;20238;-52
2021/11/04 06:46:02;;;;;;;22.80;10.67;;;5.40;99.90;;;;;;4979055;28;20669;-52
2021/11/04 06:48:43;;;;;;;21.27;11.60;;;5.30;99.90;;;;;;4980291;28;20203;-51
2021/11/04 06:51:12;;;;;;;19.87;9.80;;;5.20;99.90;;;;;;4979523;28;20546;-52
2021/11/04 06:53:44;;;;;;;23.03;11.37;;;5.20;99.90;;;;;;4979828;28;20222;-52
2021/11/04 06:56:12;;;;;;;16.80;11.13;;;5.10;99.90;;;;;;4978479;28;20305;-51
2021/11/04 06:58:40;;;;;;;17.60;10.63;;;5.10;99.90;;;;;;4980690;28;20272;-51
2021/11/04 07:01:13;;;;;;;20.50;11.13;;;5.30;99.90;;;;;;4975606;28;20565;-53
2021/11/04 07:03:47;;;;;;;20.70;10.97;;;5.20;99.90;;;;;;4978570;28;20241;-52
2021/11/04 07:06:22;;;;;;;15.27;10.80;;;5.30;99.90;;;;;;4973084;28;20284;-51
2021/11/04 07:08:58;;;;;;;22.13;11.70;;;5.20;99.90;;;;;;4974025;28;20717;-51
2021/11/04 07:11:29;;;;;;;19.67;11.97;;;5.30;99.90;;;;;;4973016;28;20190;-51
2021/11/04 07:13:56;;;;;;;15.90;10.80;;;5.50;99.90;;;;;;4973598;28;20753;-52
2021/11/04 07:16:25;;;;;;;18.90;11.80;;;5.30;99.90;;;;;;4973654;28;20203;-52
2021/11/04 07:18:54;;;;;;;23.40;11.83;;;5.30;99.90;;;;;;4974663;28;20290;-52
2021/11/04 07:21:33;;;;;;;20.60;11.53;;;5.30;99.90;;;;;;4972086;28;20239;-50
2021/11/04 07:24:05;;;;;;;18.30;11.57;;;5.40;99.90;;;;;;4972536;28;20225;-52
2021/11/04 07:26:35;;;;;;;14.63;10.60;;;5.40;99.90;;;;;;4971276;28;20227;-51
2021/11/04 07:29:04;;;;;;;15.53;10.70;;;5.40;99.90;;;;;;4977095;28;20544;-51
2021/11/04 07:31:34;;;;;;;17.43;11.20;;;5.40;99.90;;;;;;4972543;28;20301;-51
2021/11/04 07:34:05;;;;;;;16.23;10.57;;;5.50;99.90;;;;;;4973998;28;20229;-51
2021/11/04 07:36:35;;;;;;;14.67;10.53;;;5.50;99.90;;;;;;4972653;28;20730;-52
2021/11/04 07:39:06;;;;;;;14.93;11.03;;;5.60;99.90;;;;;;4973948;28;20297;-52
2021/11/04 07:41:35;;;;;;;14.77;10.87;;;5.70;99.90;;;;;;4974744;28;20341;-50
2021/11/04 07:44:03;;;;;;;17.17;11.30;;;6.00;99.90;;;;;;4972443;28;20247;-52
2021/11/04 07:46:31;;;;;;;11.73;9.60;;;6.00;99.90;;;;;;4974598;28;20240;-52
2021/11/04 07:48:59;;;;;;;14.07;10.57;;;6.00;99.90;;;;;;4977480;28;20261;-51
2021/11/04 07:51:27;;;;;;;13.13;9.60;;;6.00;99.90;;;;;;4978187;28;20564;-51
2021/11/04 07:53:56;;;;;;;13.17;9.43;;;5.90;99.90;;;;;;4977309;28;20579;-53
2021/11/04 07:56:23;;;;;;;13.23;9.77;;;5.80;99.90;;;;;;4968229;28;20234;-51
2021/11/04 07:58:50;;;;;;;13.77;9.90;;;5.70;99.90;;;;;;4970468;28;20210;-50
2021/11/04 08:01:17;;;;;;;15.53;10.27;;;5.90;99.90;;;;;;4969564;28;20334;-49
2021/11/04 08:03:46;;;;;;;15.80;10.23;;;6.20;99.90;;;;;;4975607;28;20228;-50
2021/11/04 08:06:14;;;;;;;13.90;9.73;;;6.10;99.90;;;;;;4978670;28;20378;-49
2021/11/04 08:08:41;;;;;;;14.50;9.97;;;6.00;99.90;;;;;;4976907;28;20209;-50
2021/11/04 08:11:08;;;;;;;13.07;10.03;;;6.20;99.90;;;;;;4974415;28;20212;-50
2021/11/04 08:13:35;;;;;;;11.63;9.60;;;6.10;99.90;;;;;;4976956;28;20198;-49
2021/11/04 08:16:02;;;;;;;12.17;9.37;;;6.20;99.90;;;;;;4958311;28;21000;-52
2021/11/04 08:18:29;;;;;;;13.03;9.77;;;6.20;99.90;;;;;;4970056;28;20208;-50
2021/11/04 08:20:56;;;;;;;17.27;10.10;;;6.20;99.90;;;;;;4962700;28;20219;-50
2021/11/04 08:23:23;;;;;;;14.53;10.33;;;6.40;99.90;;;;;;4967344;28;20286;-50
2021/11/04 08:25:50;;;;;;;13.83;10.53;;;6.30;99.90;;;;;;4971438;28;20293;-51
2021/11/04 08:28:17;;;;;;;14.37;10.40;;;6.40;99.90;;;;;;4970892;28;20281;-51
2021/11/04 08:30:43;;;;;;;15.70;10.20;;;6.30;99.90;;;;;;4973975;28;20244;-50
2021/11/04 08:33:11;;;;;;;14.07;10.70;;;6.40;99.90;;;;;;4977584;28;20241;-50
2021/11/04 08:35:38;;;;;;;13.93;9.90;;;6.40;99.90;;;;;;4975243;28;20212;-53
2021/11/04 08:38:06;;;;;;;14.30;10.23;;;6.40;99.90;;;;;;4970708;28;20212;-51
2021/11/04 08:40:32;;;;;;;12.50;9.67;;;6.50;99.90;;;;;;4971734;28;20305;-52
2021/11/04 08:43:02;;;;;;;12.87;10.00;;;6.70;99.90;;;;;;4974212;28;20574;-52
2021/11/04 08:45:29;;;;;;;12.27;9.80;;;6.70;99.90;;;;;;4956622;28;20231;-51
2021/11/04 08:47:56;;;;;;;12.57;10.03;;;6.70;99.90;;;;;;4967390;28;20218;-51
2021/11/04 08:50:23;;;;;;;13.67;9.13;;;6.90;99.90;;;;;;4968617;28;21119;-51
2021/11/04 08:52:52;;;;;;;13.10;9.80;;;6.90;99.90;;;;;;4968843;28;20207;-53
2021/11/04 08:55:20;;;;;;;11.90;8.97;;;7.00;99.90;;;;;;4974561;28;20217;-51
2021/11/04 08:57:47;;;;;;;13.17;10.33;;;6.80;99.90;;;;;;4970103;28;20293;-51
2021/11/04 09:00:14;;;;;;;12.67;9.47;;;6.90;99.90;;;;;;4967809;28;20566;-52
2021/11/04 09:02:42;;;;;;;15.83;10.47;;;7.10;99.90;;;;;;4973764;28;20288;-50
2021/11/04 09:05:09;;;;;;;12.83;9.93;;;7.60;99.90;;;;;;4971771;28;20196;-51
2021/11/04 09:07:41;;;;;;;9.13;8.03;;;7.80;99.90;;;;;;4970840;28;20360;-51
2021/11/04 09:10:13;;;;;;;9.57;7.83;;;7.60;99.90;;;;;;4976583;28;20353;-50
2021/11/04 09:12:41;;;;;;;9.93;7.50;;;7.60;99.90;;;;;;4974554;28;20295;-50
2021/11/04 09:15:10;;;;;;;13.63;8.97;;;7.80;99.90;;;;;;4975311;28;20297;-52
2021/11/04 09:17:37;;;;;;;11.17;8.87;;;8.50;99.90;;;;;;4969142;28;20199;-51
2021/11/04 09:20:05;;;;;;;9.93;8.77;;;8.80;99.90;;;;;;4967186;28;20210;-51
2021/11/04 09:22:33;;;;;;;9.47;7.40;;;9.10;99.90;;;;;;4971398;28;20208;-52
2021/11/04 09:25:01;;;;;;;9.87;7.47;;;9.20;99.90;;;;;;4970360;28;20667;-52
2021/11/04 09:27:28;;;;;;;8.07;7.00;;;9.00;99.90;;;;;;4969503;28;20311;-50
2021/11/04 09:29:56;;;;;;;8.13;6.73;;;8.90;99.90;;;;;;4972368;28;20280;-50
2021/11/04 09:32:24;;;;;;;10.00;6.37;;;8.90;99.90;;;;;;4973124;28;20264;-52
2021/11/04 09:34:56;;;;;;;9.07;7.43;;;8.70;99.90;;;;;;4971386;28;20232;-50
2021/11/04 09:37:23;;;;;;;7.77;6.70;;;8.50;99.90;;;;;;4965848;28;20283;-52
2021/11/04 09:39:50;;;;;;;7.60;6.50;;;8.40;99.90;;;;;;4969778;28;20575;-51
2021/11/04 09:42:21;;;;;;;7.03;6.33;;;8.30;99.90;;;;;;4966095;28;20612;-50
2021/11/04 09:44:49;;;;;;;8.23;7.30;;;8.40;99.90;;;;;;4967502;28;20222;-50
2021/11/04 09:47:21;;;;;;;8.97;6.97;;;8.50;99.90;;;;;;4971439;28;20371;-49
2021/11/04 09:49:53;;;;;;;10.90;7.37;;;8.80;99.90;;;;;;4969935;28;20324;-51
2021/11/04 09:52:27;;;;;;;8.87;6.80;;;8.60;99.90;;;;;;4970349;28;20623;-51
2021/11/04 09:54:58;;;;;;;8.17;6.20;;;8.70;99.90;;;;;;4977924;28;20274;-51
2021/11/04 09:57:26;;;;;;;7.20;6.07;;;8.60;99.90;;;;;;4975951;28;20620;-51
2021/11/04 09:59:54;;;;;;;8.33;6.37;;;8.60;99.90;;;;;;4975766;28;20207;-51
2021/11/04 10:02:24;;;;;;;7.47;5.70;;;8.60;99.90;;;;;;4973848;28;20679;-52
2021/11/04 10:04:52;;;;;;;8.57;6.10;;;8.80;99.90;;;;;;4973790;28;20307;-52
2021/11/04 10:07:20;;;;;;;11.23;6.97;;;9.10;99.90;;;;;;4974446;28;20305;-49
2021/11/04 10:10:00;;;;;;;7.27;6.10;;;9.20;99.90;;;;;;4976051;28;20206;-50
2021/11/04 10:12:27;;;;;;;10.67;6.10;;;9.10;99.90;;;;;;4973450;28;20209;-51
2021/11/04 10:15:15;;;;;;;6.97;5.77;;;9.00;99.90;;;;;;4977266;28;20190;-50
2021/11/04 10:17:42;;;;;;;6.37;5.63;;;8.90;99.90;;;;;;4958832;28;20210;-50
2021/11/04 10:20:20;;;;;;;7.57;6.13;;;8.90;99.90;;;;;;4960585;28;20311;-51
2021/11/04 10:23:08;;;;;;;7.70;5.87;;;9.00;99.90;;;;;;4977395;28;20240;-51
2021/11/04 10:25:35;;;;;;;8.93;5.77;;;9.00;99.90;;;;;;4974389;28;20300;-50
2021/11/04 10:28:28;;;;;;;7.40;6.50;;;9.10;99.90;;;;;;4979509;28;20209;-50
2021/11/04 10:30:59;;;;;;;8.13;6.43;;;9.10;99.90;;;;;;4974716;28;20213;-52
2021/11/04 10:33:38;;;;;;;9.13;5.70;;;9.40;99.90;;;;;;4977877;28;20666;-51
2021/11/04 10:36:05;;;;;;;6.90;5.87;;;9.40;99.90;;;;;;4977208;28;20268;-50
2021/11/04 10:38:43;;;;;;;8.80;6.03;;;9.30;99.90;;;;;;4975961;28;20202;-50
2021/11/04 10:41:22;;;;;;;7.03;5.30;;;9.40;99.90;;;;;;4977291;28;20278;-50
2021/11/04 10:43:52;;;;;;;8.13;5.40;;;9.30;99.90;;;;;;4975593;28;20240;-50
2021/11/04 10:46:23;;;;;;;8.23;6.07;;;9.30;99.90;;;;;;4959876;28;20247;-52
2021/11/04 10:49:02;;;;;;;7.10;6.30;;;9.40;99.90;;;;;;4976872;28;20720;-50
2021/11/04 10:51:33;;;;;;;6.13;5.53;;;9.40;99.90;;;;;;4973932;28;20242;-52
2021/11/04 10:54:09;;;;;;;6.30;5.67;;;9.50;99.90;;;;;;4977061;28;20212;-50
2021/11/04 10:56:39;;;;;;;7.93;6.10;;;9.70;99.90;;;;;;4977789;28;20314;-50
2021/11/04 10:59:11;;;;;;;7.90;6.03;;;9.80;99.90;;;;;;4978224;28;20210;-52
2021/11/04 11:01:45;;;;;;;6.50;5.57;;;9.90;99.90;;;;;;4977595;28;20301;-50
2021/11/04 11:04:19;;;;;;;8.97;6.33;;;9.70;99.90;;;;;;4978854;28;20234;-51
2021/11/04 11:06:52;;;;;;;6.13;5.37;;;9.60;99.90;;;;;;4960260;28;20248;-51
2021/11/04 11:09:27;;;;;;;7.40;6.17;;;9.70;99.90;;;;;;4976911;28;20243;-50
2021/11/04 11:12:04;;;;;;;7.33;5.80;;;9.90;99.90;;;;;;4975761;28;20657;-50
2021/11/04 11:14:38;;;;;;;8.43;6.10;;;9.90;99.90;;;;;;4978838;28;20239;-50
2021/11/04 11:17:06;;;;;;;6.83;5.87;;;10.10;99.90;;;;;;4976452;28;20305;-50
2021/11/04 11:19:42;;;;;;;6.50;5.40;;;10.00;99.90;;;;;;4975941;28;20210;-50
2021/11/04 11:22:10;;;;;;;6.87;6.17;;;10.00;99.90;;;;;;4977364;28;20206;-53
2021/11/04 11:24:39;;;;;;;6.63;5.90;;;10.00;99.90;;;;;;4976021;28;20245;-50
2021/11/04 11:27:17;;;;;;;9.93;6.30;;;10.20;99.90;;;;;;4973831;28;20260;-50
2021/11/04 11:29:47;;;;;;;9.17;5.37;;;10.30;99.90;;;;;;4977584;28;22514;-50
2021/11/04 11:32:28;;;;;;;7.67;5.97;;;10.60;99.90;;;;;;4976092;28;20743;-52
2021/11/04 11:35:12;;;;;;;7.40;6.00;;;10.50;99.90;;;;;;4975719;28;20224;-51
2021/11/04 11:38:00;;;;;;;6.83;5.77;;;10.50;99.90;;;;;;4977292;28;20210;-51
2021/11/04 11:40:29;;;;;;;8.53;5.87;;;10.60;99.90;;;;;;4976372;28;20717;-50
2021/11/04 11:42:57;;;;;;;8.47;6.10;;;10.80;99.90;;;;;;4970780;28;20209;-50
2021/11/04 11:45:29;;;;;;;6.53;5.50;;;10.90;99.90;;;;;;4971388;28;20658;-51
2021/11/04 11:48:20;;;;;;;8.53;5.83;;;11.00;99.90;;;;;;4963796;28;20226;-51
2021/11/04 11:50:49;;;;;;;7.70;5.40;;;11.00;99.90;;;;;;4972152;28;20241;-50
2021/11/04 11:53:25;;;;;;;7.77;6.77;;;10.70;99.90;;;;;;4971848;28;20231;-53
2021/11/04 11:55:57;;;;;;;7.43;6.50;;;10.90;99.90;;;;;;4971568;28;20291;-52
2021/11/04 11:58:32;;;;;;;8.90;7.10;;;10.80;99.90;;;;;;4975180;28;20198;-51
2021/11/04 12:01:11;;;;;;;9.70;7.40;;;10.90;99.90;;;;;;4976293;28;20204;-51
2021/11/04 12:03:39;;;;;;;7.97;6.83;;;10.60;99.90;;;;;;4973106;28;21877;-50
2021/11/04 12:06:12;;;;;;;9.33;7.57;;;10.40;99.90;;;;;;4972994;28;20217;-50
2021/11/04 12:08:41;;;;;;;7.43;6.23;;;10.50;99.90;;;;;;4973769;28;20683;-50
2021/11/04 12:11:34;;;;;;;11.33;7.47;;;10.50;99.90;;;;;;4972210;28;20296;-50
2021/11/04 12:14:19;;;;;;;10.10;7.87;;;10.70;99.90;;;;;;4975427;28;20210;-51
2021/11/04 12:17:02;;;;;;;10.60;8.33;;;10.80;99.90;;;;;;4971365;28;20256;-50
2021/11/04 12:19:48;;;;;;;9.77;8.43;;;10.80;99.90;;;;;;4973688;28;20210;-49
2021/11/04 12:22:38;;;;;;;9.80;8.03;;;10.60;99.90;;;;;;4972906;28;20676;-51
2021/11/04 12:25:08;;;;;;;8.97;8.07;;;10.70;99.90;;;;;;4977377;28;20202;-50
2021/11/04 12:27:37;;;;;;;12.53;9.20;;;10.60;99.90;;;;;;4978181;28;20245;-51
2021/11/04 12:30:14;;;;;;;10.10;8.00;;;10.60;99.90;;;;;;4978270;28;20250;-51
2021/11/04 12:32:41;;;;;;;10.67;8.93;;;10.70;99.90;;;;;;4975307;28;20197;-49
2021/11/04 12:35:09;;;;;;;9.60;7.87;;;10.70;99.90;;;;;;4975518;28;20599;-52
2021/11/04 12:37:36;;;;;;;10.17;8.10;;;10.80;99.90;;;;;;4973872;28;20238;-50
2021/11/04 12:40:06;;;;;;;12.83;9.13;;;10.80;99.90;;;;;;4976663;28;20233;-51
2021/11/04 12:42:33;;;;;;;10.23;8.37;;;10.70;99.90;;;;;;4973869;28;20237;-50
2021/11/04 12:45:00;;;;;;;12.20;8.53;;;10.70;99.90;;;;;;4976971;28;20693;-50
2021/11/04 12:47:29;;;;;;;10.87;8.17;;;10.70;99.90;;;;;;4969722;28;20223;-50
2021/11/04 12:49:56;;;;;;;11.23;9.13;;;10.60;99.90;;;;;;4970405;28;20677;-50
2021/11/04 12:52:26;;;;;;;12.37;8.90;;;10.70;99.90;;;;;;4951923;28;20207;-51